sensor_id;sensor_type;location;lat;lon;timestamp;pressure;altitude;pressure_sealevel;temperature;humidity
7962;BME280;4026;43.652;24.906;2023-08-21T00:01:41;99321.63;;;24.91;66.27
7962;BME280;4026;43.652;24.906;2023-08-21T00:04:08;99325.84;;;24.85;66.87
7962;BME280;4026;43.652;24.906;2023-08-21T00:06:35;99322.59;;;24.83;67.63
7962;BME280;4026;43.652;24.906;2023-08-21T00:09:02;99321.78;;;24.76;68.05
7962;BME280;4026;43.652;24.906;2023-08-21T00:11:29;99324.97;;;24.71;68.56
7962;BME280;4026;43.652;24.906;2023-08-21T00:13:56;99325.94;;;24.63;68.87
7962;BME280;4026;43.652;24.906;2023-08-21T00:16:22;99315.88;;;24.60;68.82
7962;BME280;4026;43.652;24.906;2023-08-21T00:18:50;99322.69;;;24.55;68.78
7962;BME280;4026;43.652;24.906;2023-08-21T00:21:18;99316.28;;;24.57;68.62
7962;BME280;4026;43.652;24.906;2023-08-21T00:23:45;99319.69;;;24.58;68.03
7962;BME280;4026;43.652;24.906;2023-08-21T00:26:12;99321.50;;;24.57;69.53
7962;BME280;4026;43.652;24.906;2023-08-21T00:28:39;99325.69;;;24.45;70.97
7962;BME280;4026;43.652;24.906;2023-08-21T00:31:05;99327.22;;;24.33;71.50
7962;BME280;4026;43.652;24.906;2023-08-21T00:33:33;99327.38;;;24.25;71.62
7962;BME280;4026;43.652;24.906;2023-08-21T00:36:01;99328.00;;;24.27;71.31
7962;BME280;4026;43.652;24.906;2023-08-21T00:38:28;99328.94;;;24.19;71.18
7962;BME280;4026;43.652;24.906;2023-08-21T00:40:54;99331.56;;;24.19;71.15
7962;BME280;4026;43.652;24.906;2023-08-21T00:43:23;99324.97;;;24.23;72.01
7962;BME280;4026;43.652;24.906;2023-08-21T00:45:50;99326.16;;;24.21;73.13
7962;BME280;4026;43.652;24.906;2023-08-21T00:48:17;99327.53;;;24.16;73.72
7962;BME280;4026;43.652;24.906;2023-08-21T00:50:45;99331.94;;;24.16;73.58
7962;BME280;4026;43.652;24.906;2023-08-21T00:53:13;99339.63;;;24.17;75.69
7962;BME280;4026;43.652;24.906;2023-08-21T00:55:40;99343.97;;;24.10;70.61
7962;BME280;4026;43.652;24.906;2023-08-21T00:58:09;99354.41;;;24.04;70.81
7962;BME280;4026;43.652;24.906;2023-08-21T01:00:36;99358.97;;;23.95;71.22
7962;BME280;4026;43.652;24.906;2023-08-21T01:03:03;99349.44;;;23.87;70.46
7962;BME280;4026;43.652;24.906;2023-08-21T01:05:30;99347.03;;;23.86;70.50
7962;BME280;4026;43.652;24.906;2023-08-21T01:08:00;99343.19;;;23.82;71.34
7962;BME280;4026;43.652;24.906;2023-08-21T01:10:40;99354.25;;;23.84;72.47
7962;BME280;4026;43.652;24.906;2023-08-21T01:13:13;99359.84;;;23.81;72.22
7962;BME280;4026;43.652;24.906;2023-08-21T01:15:44;99360.00;;;23.72;71.97
7962;BME280;4026;43.652;24.906;2023-08-21T01:18:13;99354.78;;;23.72;71.37
7962;BME280;4026;43.652;24.906;2023-08-21T01:20:40;99346.94;;;23.72;73.54
7962;BME280;4026;43.652;24.906;2023-08-21T01:23:07;99348.69;;;23.65;73.61
7962;BME280;4026;43.652;24.906;2023-08-21T01:25:35;99348.47;;;23.67;74.28
7962;BME280;4026;43.652;24.906;2023-08-21T01:28:03;99344.44;;;23.64;74.66
7962;BME280;4026;43.652;24.906;2023-08-21T01:30:32;99344.81;;;23.61;75.58
7962;BME280;4026;43.652;24.906;2023-08-21T01:33:06;99344.81;;;23.61;76.41
7962;BME280;4026;43.652;24.906;2023-08-21T01:35:34;99350.25;;;23.60;76.00
7962;BME280;4026;43.652;24.906;2023-08-21T01:38:02;99345.16;;;23.52;75.80
7962;BME280;4026;43.652;24.906;2023-08-21T01:40:30;99348.75;;;23.50;75.58
7962;BME280;4026;43.652;24.906;2023-08-21T01:42:58;99340.97;;;23.36;75.28
7962;BME280;4026;43.652;24.906;2023-08-21T01:45:26;99348.47;;;23.39;77.13
7962;BME280;4026;43.652;24.906;2023-08-21T01:47:52;99349.44;;;23.38;77.41
7962;BME280;4026;43.652;24.906;2023-08-21T01:50:19;99348.94;;;23.27;77.42
7962;BME280;4026;43.652;24.906;2023-08-21T01:52:46;99350.56;;;23.28;77.31
7962;BME280;4026;43.652;24.906;2023-08-21T01:55:13;99355.16;;;23.26;77.16
7962;BME280;4026;43.652;24.906;2023-08-21T01:57:40;99352.91;;;23.23;77.17
7962;BME280;4026;43.652;24.906;2023-08-21T02:00:10;99354.91;;;23.21;78.14
7962;BME280;4026;43.652;24.906;2023-08-21T02:02:38;99349.81;;;23.13;78.54
7962;BME280;4026;43.652;24.906;2023-08-21T02:05:06;99359.63;;;23.11;78.63
7962;BME280;4026;43.652;24.906;2023-08-21T02:07:32;99352.91;;;23.02;78.75
7962;BME280;4026;43.652;24.906;2023-08-21T02:09:59;99343.81;;;22.98;77.86
7962;BME280;4026;43.652;24.906;2023-08-21T02:12:26;99340.63;;;22.96;78.72
7962;BME280;4026;43.652;24.906;2023-08-21T02:14:53;99346.63;;;22.96;78.86
7962;BME280;4026;43.652;24.906;2023-08-21T02:17:21;99344.09;;;22.88;79.04
7962;BME280;4026;43.652;24.906;2023-08-21T02:19:48;99341.31;;;22.90;78.76
7962;BME280;4026;43.652;24.906;2023-08-21T02:22:15;99348.69;;;22.86;79.18
7962;BME280;4026;43.652;24.906;2023-08-21T02:24:41;99345.09;;;22.87;79.24
7962;BME280;4026;43.652;24.906;2023-08-21T02:27:08;99345.47;;;22.84;79.67
7962;BME280;4026;43.652;24.906;2023-08-21T02:29:35;99343.13;;;22.74;79.88
7962;BME280;4026;43.652;24.906;2023-08-21T02:32:02;99338.28;;;22.71;80.72
7962;BME280;4026;43.652;24.906;2023-08-21T02:34:30;99350.81;;;22.61;81.27
7962;BME280;4026;43.652;24.906;2023-08-21T02:36:57;99345.25;;;22.64;79.63
7962;BME280;4026;43.652;24.906;2023-08-21T02:39:24;99342.63;;;22.64;80.16
7962;BME280;4026;43.652;24.906;2023-08-21T02:41:51;99342.25;;;22.67;80.14
7962;BME280;4026;43.652;24.906;2023-08-21T02:44:18;99350.09;;;22.67;80.22
7962;BME280;4026;43.652;24.906;2023-08-21T02:46:45;99344.66;;;22.69;79.96
7962;BME280;4026;43.652;24.906;2023-08-21T02:49:11;99345.88;;;22.66;80.72
7962;BME280;4026;43.652;24.906;2023-08-21T02:51:40;99347.84;;;22.64;79.87
7962;BME280;4026;43.652;24.906;2023-08-21T02:54:07;99349.00;;;22.62;80.06
7962;BME280;4026;43.652;24.906;2023-08-21T02:56:34;99344.81;;;22.46;80.85
7962;BME280;4026;43.652;24.906;2023-08-21T02:59:00;99341.00;;;22.48;81.22
7962;BME280;4026;43.652;24.906;2023-08-21T03:01:27;99341.13;;;22.55;81.33
7962;BME280;4026;43.652;24.906;2023-08-21T03:03:54;99346.94;;;22.57;81.30
7962;BME280;4026;43.652;24.906;2023-08-21T03:06:21;99348.56;;;22.58;81.56
7962;BME280;4026;43.652;24.906;2023-08-21T03:08:49;99350.19;;;22.59;81.97
7962;BME280;4026;43.652;24.906;2023-08-21T03:11:16;99349.38;;;22.58;82.35
7962;BME280;4026;43.652;24.906;2023-08-21T03:13:43;99355.75;;;22.56;83.10
7962;BME280;4026;43.652;24.906;2023-08-21T03:16:10;99350.91;;;22.53;82.73
7962;BME280;4026;43.652;24.906;2023-08-21T03:18:53;99364.31;;;22.50;82.70
7962;BME280;4026;43.652;24.906;2023-08-21T03:21:20;99358.00;;;22.44;82.15
7962;BME280;4026;43.652;24.906;2023-08-21T03:23:51;99353.97;;;22.42;82.16
7962;BME280;4026;43.652;24.906;2023-08-21T03:26:18;99347.94;;;22.41;82.34
7962;BME280;4026;43.652;24.906;2023-08-21T03:28:44;99361.16;;;22.40;82.89
7962;BME280;4026;43.652;24.906;2023-08-21T03:31:11;99361.50;;;22.36;82.89
7962;BME280;4026;43.652;24.906;2023-08-21T03:33:38;99366.34;;;22.40;83.86
7962;BME280;4026;43.652;24.906;2023-08-21T03:36:05;99355.50;;;22.36;84.59
7962;BME280;4026;43.652;24.906;2023-08-21T03:38:32;99365.13;;;22.35;83.93
7962;BME280;4026;43.652;24.906;2023-08-21T03:41:00;99361.16;;;22.25;84.80
7962;BME280;4026;43.652;24.906;2023-08-21T03:43:27;99371.41;;;22.26;84.75
7962;BME280;4026;43.652;24.906;2023-08-21T03:45:54;99366.56;;;22.23;84.88
7962;BME280;4026;43.652;24.906;2023-08-21T03:48:21;99363.16;;;22.23;85.05
7962;BME280;4026;43.652;24.906;2023-08-21T03:50:48;99360.72;;;22.21;84.85
7962;BME280;4026;43.652;24.906;2023-08-21T03:53:15;99372.22;;;22.27;84.72
7962;BME280;4026;43.652;24.906;2023-08-21T03:55:42;99369.44;;;22.28;84.92
7962;BME280;4026;43.652;24.906;2023-08-21T03:58:10;99375.69;;;22.34;85.82
7962;BME280;4026;43.652;24.906;2023-08-21T04:00:37;99375.09;;;22.32;85.45
7962;BME280;4026;43.652;24.906;2023-08-21T04:03:04;99374.28;;;22.31;86.85
7962;BME280;4026;43.652;24.906;2023-08-21T04:05:31;99377.34;;;22.20;87.33
7962;BME280;4026;43.652;24.906;2023-08-21T04:07:57;99384.16;;;22.21;87.15
7962;BME280;4026;43.652;24.906;2023-08-21T04:10:24;99384.44;;;22.26;87.23
7962;BME280;4026;43.652;24.906;2023-08-21T04:12:51;99382.56;;;22.35;86.97
7962;BME280;4026;43.652;24.906;2023-08-21T04:15:19;99390.44;;;22.42;86.81
7962;BME280;4026;43.652;24.906;2023-08-21T04:17:46;99388.84;;;22.41;87.16
7962;BME280;4026;43.652;24.906;2023-08-21T04:20:12;99385.22;;;22.42;86.78
7962;BME280;4026;43.652;24.906;2023-08-21T04:22:39;99387.31;;;22.46;86.50
7962;BME280;4026;43.652;24.906;2023-08-21T04:25:07;99397.09;;;22.59;86.90
7962;BME280;4026;43.652;24.906;2023-08-21T04:27:33;99391.78;;;22.67;87.42
7962;BME280;4026;43.652;24.906;2023-08-21T04:30:00;99388.09;;;22.76;86.91
7962;BME280;4026;43.652;24.906;2023-08-21T04:32:29;99394.53;;;22.80;86.13
7962;BME280;4026;43.652;24.906;2023-08-21T04:34:56;99386.84;;;22.72;85.45
7962;BME280;4026;43.652;24.906;2023-08-21T04:37:23;99389.31;;;22.80;85.13
7962;BME280;4026;43.652;24.906;2023-08-21T04:39:50;99399.84;;;22.87;85.00
7962;BME280;4026;43.652;24.906;2023-08-21T04:42:17;99392.91;;;22.94;85.14
7962;BME280;4026;43.652;24.906;2023-08-21T04:44:44;99398.41;;;22.99;84.78
7962;BME280;4026;43.652;24.906;2023-08-21T04:47:21;99398.47;;;23.06;84.66
7962;BME280;4026;43.652;24.906;2023-08-21T04:49:50;99398.13;;;23.09;84.32
7962;BME280;4026;43.652;24.906;2023-08-21T04:52:17;99400.97;;;23.14;84.60
7962;BME280;4026;43.652;24.906;2023-08-21T04:54:44;99401.63;;;23.16;84.09
7962;BME280;4026;43.652;24.906;2023-08-21T04:57:11;99406.34;;;23.27;84.19
7962;BME280;4026;43.652;24.906;2023-08-21T04:59:37;99406.84;;;23.38;85.15
7962;BME280;4026;43.652;24.906;2023-08-21T05:02:04;99410.44;;;23.37;84.34
7962;BME280;4026;43.652;24.906;2023-08-21T05:04:32;99404.13;;;23.46;84.25
7962;BME280;4026;43.652;24.906;2023-08-21T05:07:00;99408.84;;;23.57;84.71
7962;BME280;4026;43.652;24.906;2023-08-21T05:09:27;99406.72;;;23.67;83.12
7962;BME280;4026;43.652;24.906;2023-08-21T05:11:54;99407.63;;;23.75;83.05
7962;BME280;4026;43.652;24.906;2023-08-21T05:14:21;99407.72;;;23.88;83.41
7962;BME280;4026;43.652;24.906;2023-08-21T05:16:48;99419.44;;;23.99;81.87
7962;BME280;4026;43.652;24.906;2023-08-21T05:19:15;99412.28;;;24.07;81.35
7962;BME280;4026;43.652;24.906;2023-08-21T05:21:42;99416.34;;;24.16;80.73
7962;BME280;4026;43.652;24.906;2023-08-21T05:24:10;99412.44;;;24.34;80.40
7962;BME280;4026;43.652;24.906;2023-08-21T05:26:37;99411.69;;;24.40;79.97
7962;BME280;4026;43.652;24.906;2023-08-21T05:29:04;99422.88;;;24.55;81.01
7962;BME280;4026;43.652;24.906;2023-08-21T05:31:31;99415.09;;;24.69;79.77
7962;BME280;4026;43.652;24.906;2023-08-21T05:33:58;99412.13;;;24.85;78.52
7962;BME280;4026;43.652;24.906;2023-08-21T05:36:25;99419.66;;;25.08;78.91
7962;BME280;4026;43.652;24.906;2023-08-21T05:38:52;99416.31;;;25.21;77.08
7962;BME280;4026;43.652;24.906;2023-08-21T05:41:20;99422.16;;;25.36;76.58
7962;BME280;4026;43.652;24.906;2023-08-21T05:43:47;99416.56;;;25.52;76.39
7962;BME280;4026;43.652;24.906;2023-08-21T05:46:14;99411.75;;;25.69;76.08
7962;BME280;4026;43.652;24.906;2023-08-21T05:48:41;99417.44;;;25.86;75.90
7962;BME280;4026;43.652;24.906;2023-08-21T05:51:08;99416.59;;;26.06;74.27
7962;BME280;4026;43.652;24.906;2023-08-21T05:53:34;99423.44;;;26.20;74.45
7962;BME280;4026;43.652;24.906;2023-08-21T05:56:01;99414.53;;;26.34;72.32
7962;BME280;4026;43.652;24.906;2023-08-21T05:58:29;99424.38;;;26.46;73.43
7962;BME280;4026;43.652;24.906;2023-08-21T06:00:58;99420.75;;;26.60;71.93
7962;BME280;4026;43.652;24.906;2023-08-21T06:03:25;99424.53;;;26.77;72.90
7962;BME280;4026;43.652;24.906;2023-08-21T06:05:51;99425.66;;;26.95;71.15
7962;BME280;4026;43.652;24.906;2023-08-21T06:08:18;99422.94;;;27.08;69.66
7962;BME280;4026;43.652;24.906;2023-08-21T06:10:45;99428.78;;;27.23;68.91
7962;BME280;4026;43.652;24.906;2023-08-21T06:13:16;99440.38;;;27.41;68.23
7962;BME280;4026;43.652;24.906;2023-08-21T06:15:45;99439.00;;;27.63;67.59
7962;BME280;4026;43.652;24.906;2023-08-21T06:18:11;99447.75;;;27.89;66.46
7962;BME280;4026;43.652;24.906;2023-08-21T06:20:38;99435.94;;;27.98;64.91
7962;BME280;4026;43.652;24.906;2023-08-21T06:23:05;99439.47;;;28.10;62.94
7962;BME280;4026;43.652;24.906;2023-08-21T06:25:32;99440.09;;;28.31;63.70
7962;BME280;4026;43.652;24.906;2023-08-21T06:27:59;99445.38;;;28.49;62.98
7962;BME280;4026;43.652;24.906;2023-08-21T06:30:26;99447.00;;;28.69;60.66
7962;BME280;4026;43.652;24.906;2023-08-21T06:32:54;99447.56;;;28.89;62.12
7962;BME280;4026;43.652;24.906;2023-08-21T06:35:21;99451.84;;;29.02;57.57
7962;BME280;4026;43.652;24.906;2023-08-21T06:37:48;99456.09;;;29.21;62.44
7962;BME280;4026;43.652;24.906;2023-08-21T06:40:15;99452.59;;;29.39;62.59
7962;BME280;4026;43.652;24.906;2023-08-21T06:42:42;99454.47;;;29.50;60.75
7962;BME280;4026;43.652;24.906;2023-08-21T06:45:09;99459.81;;;29.74;58.10
7962;BME280;4026;43.652;24.906;2023-08-21T06:47:36;99461.09;;;29.95;57.81
7962;BME280;4026;43.652;24.906;2023-08-21T06:50:05;99461.69;;;30.09;56.13
7962;BME280;4026;43.652;24.906;2023-08-21T06:52:32;99458.94;;;30.27;56.38
7962;BME280;4026;43.652;24.906;2023-08-21T06:54:59;99456.84;;;30.53;56.39
7962;BME280;4026;43.652;24.906;2023-08-21T06:57:25;99466.56;;;30.76;55.76
7962;BME280;4026;43.652;24.906;2023-08-21T06:59:52;99455.16;;;30.99;61.44
7962;BME280;4026;43.652;24.906;2023-08-21T07:02:19;99457.84;;;31.16;57.43
7962;BME280;4026;43.652;24.906;2023-08-21T07:04:46;99460.34;;;31.22;52.83
7962;BME280;4026;43.652;24.906;2023-08-21T07:07:14;99458.00;;;31.38;57.04
7962;BME280;4026;43.652;24.906;2023-08-21T07:09:41;99472.13;;;31.60;50.80
7962;BME280;4026;43.652;24.906;2023-08-21T07:12:08;99467.16;;;31.64;51.03
7962;BME280;4026;43.652;24.906;2023-08-21T07:14:34;99463.78;;;31.85;57.19
7962;BME280;4026;43.652;24.906;2023-08-21T07:17:01;99474.25;;;31.92;51.42
7962;BME280;4026;43.652;24.906;2023-08-21T07:19:28;99472.44;;;32.14;49.68
7962;BME280;4026;43.652;24.906;2023-08-21T07:21:55;99473.50;;;32.13;51.99
7962;BME280;4026;43.652;24.906;2023-08-21T07:24:23;99477.28;;;32.17;48.05
7962;BME280;4026;43.652;24.906;2023-08-21T07:27:48;99474.25;;;32.47;47.99
7962;BME280;4026;43.652;24.906;2023-08-21T07:30:16;99484.25;;;32.62;47.25
